Time;durP1;ratioP1;P1;durP2;ratioP2;P2;SDS_P1;SDS_P2;PMS_P1;PMS_P2;Temp;Humidity;BMP_temperature;BMP_pressure;BME280_temperature;BME280_humidity;BME280_pressure;Samples;Min_cycle;Max_cycle;Signal;HPM_P1;HPM_P2
2021/11/14 00:02:37;0.00;0.00;0.62;0.00;0.00;0.62;1.93;1.40;;;23.10;28.80;;;;;;2222031;62;20395;-62
2021/11/14 00:05:22;0.00;0.00;0.62;0.00;0.00;0.62;1.93;1.50;;;23.10;28.80;;;;;;2221385;62;20370;-63
2021/11/14 00:08:08;0.00;0.00;0.62;0.00;0.00;0.62;2.27;1.47;;;23.10;29.30;;;;;;2221941;62;20375;-63
2021/11/14 00:11:05;0.00;0.00;0.62;0.00;0.00;0.62;1.80;1.10;;;23.10;28.80;;;;;;2221773;62;20579;-61
2021/11/14 00:13:51;0.00;0.00;0.62;0.00;0.00;0.62;2.43;1.83;;;23.10;28.80;;;;;;2222170;62;20471;-61
2021/11/14 00:16:37;0.00;0.00;0.62;0.00;0.00;0.62;1.70;1.40;;;23.10;28.80;;;;;;2222154;62;20371;-61
2021/11/14 00:19:21;0.00;0.00;0.62;0.00;0.00;0.62;2.00;1.50;;;23.10;28.80;;;;;;2221196;62;20370;-60
2021/11/14 00:22:06;0.00;0.00;0.62;0.00;0.00;0.62;2.50;1.60;;;23.10;28.80;;;;;;2222380;62;20371;-62
2021/11/14 00:24:50;0.00;0.00;0.62;0.00;0.00;0.62;2.17;1.40;;;23.10;28.80;;;;;;2222188;62;20395;-62
2021/11/14 00:27:35;0.00;0.00;0.62;0.00;0.00;0.62;1.83;1.30;;;23.10;28.80;;;;;;2221110;62;20408;-62
2021/11/14 00:30:21;0.00;0.00;0.62;0.00;0.00;0.62;2.00;1.30;;;23.10;28.80;;;;;;2222142;62;20484;-61
2021/11/14 00:33:08;0.00;0.00;0.62;0.00;0.00;0.62;1.73;1.30;;;23.10;29.30;;;;;;2221221;62;20368;-62
2021/11/14 00:35:52;0.00;0.00;0.62;0.00;0.00;0.62;1.77;1.30;;;23.10;28.80;;;;;;2222243;62;20416;-64
2021/11/14 00:38:38;0.00;0.00;0.62;0.00;0.00;0.62;1.67;1.20;;;23.20;28.80;;;;;;2222049;62;20688;-63
2021/11/14 00:41:24;0.00;0.00;0.62;0.00;0.00;0.62;1.67;1.10;;;23.20;28.80;;;;;;2220668;62;20597;-62
2021/11/14 00:44:09;0.00;0.00;0.62;0.00;0.00;0.62;2.27;1.33;;;23.20;28.80;;;;;;2222045;62;20521;-63
2021/11/14 00:46:54;0.00;0.00;0.62;0.00;0.00;0.62;2.27;1.40;;;23.10;28.80;;;;;;2222070;62;20414;-64
2021/11/14 00:49:39;0.00;0.00;0.62;0.00;0.00;0.62;2.03;1.37;;;23.10;28.80;;;;;;2221221;62;20375;-61
2021/11/14 00:52:24;0.00;0.00;0.62;0.00;0.00;0.62;2.07;1.43;;;23.20;28.80;;;;;;2222078;62;20367;-63
2021/11/14 00:55:11;0.00;0.00;0.62;0.00;0.00;0.62;2.03;1.30;;;23.10;28.80;;;;;;2221543;62;20413;-62
2021/11/14 00:57:56;0.00;0.00;0.62;0.00;0.00;0.62;2.87;1.47;;;23.20;28.80;;;;;;2222265;62;20387;-63
2021/11/14 01:00:42;0.00;0.00;0.62;0.00;0.00;0.62;1.97;1.30;;;23.10;28.80;;;;;;2222118;62;20553;-63
2021/11/14 01:03:28;0.00;0.00;0.62;0.00;0.00;0.62;1.67;1.10;;;23.20;28.80;;;;;;2220831;62;20484;-63
2021/11/14 01:06:13;0.00;0.00;0.62;0.00;0.00;0.62;1.70;1.20;;;23.20;28.80;;;;;;2222353;62;20371;-61
2021/11/14 01:08:58;0.00;0.00;0.62;0.00;0.00;0.62;2.07;1.80;;;23.20;28.80;;;;;;2221861;62;20374;-61
2021/11/14 01:11:43;0.00;0.00;0.62;0.00;0.00;0.62;2.10;1.70;;;23.20;28.80;;;;;;2221139;62;20370;-62
2021/11/14 01:14:28;0.00;0.00;0.62;0.00;0.00;0.62;1.90;1.40;;;23.20;28.80;;;;;;2222266;62;20382;-61
2021/11/14 01:17:12;0.00;0.00;0.62;0.00;0.00;0.62;2.90;1.40;;;23.20;28.90;;;;;;2221410;62;20374;-61
2021/11/14 01:19:59;0.00;0.00;0.62;0.00;0.00;0.62;1.50;1.23;;;23.20;28.90;;;;;;2221763;62;20375;-62
2021/11/14 01:22:45;0.00;0.00;0.62;0.00;0.00;0.62;1.80;1.20;;;23.20;28.80;;;;;;2221821;62;20399;-63
2021/11/14 01:25:30;0.00;0.00;0.62;0.00;0.00;0.62;1.50;1.20;;;23.20;28.80;;;;;;2221079;62;21090;-60
2021/11/14 01:28:17;0.00;0.00;0.62;0.00;0.00;0.62;1.70;1.30;;;23.20;28.80;;;;;;2222143;62;20366;-61
2021/11/14 01:31:01;0.00;0.00;0.62;0.00;0.00;0.62;1.60;1.10;;;23.20;28.80;;;;;;2221814;62;20359;-63
2021/11/14 01:33:46;0.00;0.00;0.62;0.00;0.00;0.62;1.67;1.20;;;23.20;28.80;;;;;;2221087;62;20520;-62
2021/11/14 01:36:34;0.00;0.00;0.62;0.00;0.00;0.62;1.87;1.27;;;23.20;28.80;;;;;;2222325;62;20379;-62
2021/11/14 01:39:19;0.00;0.00;0.62;0.00;0.00;0.62;1.93;1.27;;;23.20;28.80;;;;;;2221728;62;20390;-63
2021/11/14 01:42:04;0.00;0.00;0.62;0.00;0.00;0.62;2.80;1.50;;;23.20;28.80;;;;;;2221958;62;20442;-62
2021/11/14 01:44:48;0.00;0.00;0.62;0.00;0.00;0.62;3.03;2.10;;;23.20;28.90;;;;;;2221728;62;20402;-61
2021/11/14 01:47:33;0.00;0.00;0.62;0.00;0.00;0.62;2.23;1.73;;;23.20;28.80;;;;;;2220908;62;20746;-63
2021/11/14 01:50:19;0.00;0.00;0.62;0.00;0.00;0.62;5.30;1.50;;;23.20;28.80;;;;;;2222258;62;20814;-62
2021/11/14 01:53:06;0.00;0.00;0.62;0.00;0.00;0.62;1.90;1.30;;;23.20;28.80;;;;;;2221376;62;20367;-63
2021/11/14 01:55:52;0.00;0.00;0.62;0.00;0.00;0.62;2.30;1.57;;;23.20;28.80;;;;;;2221145;62;20440;-61
2021/11/14 01:58:37;0.00;0.00;0.62;0.00;0.00;0.62;1.50;1.20;;;23.30;28.90;;;;;;2222124;62;20447;-62
2021/11/14 02:01:25;0.00;0.00;0.62;0.00;0.00;0.62;2.03;1.40;;;23.20;28.90;;;;;;2221846;62;20657;-62
2021/11/14 02:04:10;0.00;0.00;0.62;0.00;0.00;0.62;2.23;1.70;;;23.30;28.90;;;;;;2221702;62;20406;-63
2021/11/14 02:06:54;0.00;0.00;0.62;0.00;0.00;0.62;2.43;1.90;;;23.30;28.90;;;;;;2221684;62;20375;-62
2021/11/14 02:09:42;0.00;0.00;0.62;0.00;0.00;0.62;2.07;1.60;;;23.30;28.90;;;;;;2221040;62;20370;-61
2021/11/14 02:12:26;0.00;0.00;0.62;0.00;0.00;0.62;2.00;1.43;;;23.20;28.80;;;;;;2221962;62;20371;-63
2021/11/14 02:15:11;0.00;0.00;0.62;0.00;0.00;0.62;2.33;1.60;;;23.20;28.80;;;;;;2221714;62;20435;-63
2021/11/14 02:17:57;0.00;0.00;0.62;0.00;0.00;0.62;2.13;1.57;;;23.20;28.80;;;;;;2220956;62;20416;-62
2021/11/14 02:20:46;0.00;0.00;0.62;0.00;0.00;0.62;2.10;1.50;;;23.20;28.90;;;;;;2222018;62;20412;-61
2021/11/14 02:23:33;0.00;0.00;0.62;0.00;0.00;0.62;1.60;1.17;;;23.30;28.90;;;;;;2221725;62;20467;-61
2021/11/14 02:26:18;0.00;0.00;0.62;0.00;0.00;0.62;2.40;1.40;;;23.30;28.90;;;;;;2221686;62;20617;-62
2021/11/14 02:29:03;0.00;0.00;0.62;0.00;0.00;0.62;2.57;1.40;;;23.30;28.90;;;;;;2221581;62;20401;-63
2021/11/14 02:31:48;0.00;0.00;0.62;0.00;0.00;0.62;1.70;1.30;;;23.30;29.40;;;;;;2221039;62;20375;-63
2021/11/14 02:34:33;0.00;0.00;0.62;0.00;0.00;0.62;1.93;1.60;;;23.30;28.90;;;;;;2221786;62;20399;-63
2021/11/14 02:37:19;0.00;0.00;0.62;0.00;0.00;0.62;2.00;1.80;;;23.20;28.80;;;;;;2221683;62;20479;-63
2021/11/14 02:40:07;0.00;0.00;0.62;0.00;0.00;0.62;3.23;1.77;;;23.20;28.80;;;;;;2221652;62;20616;-62
2021/11/14 02:42:52;0.00;0.00;0.62;0.00;0.00;0.62;1.90;1.70;;;23.30;28.90;;;;;;2222420;62;20417;-61
2021/11/14 02:45:38;0.00;0.00;0.62;0.00;0.00;0.62;3.40;1.83;;;23.30;28.90;;;;;;2222617;62;20374;-61
2021/11/14 02:48:23;0.00;0.00;0.62;0.00;0.00;0.62;2.67;2.17;;;23.30;28.90;;;;;;2221919;62;20375;-60
2021/11/14 02:51:14;0.00;0.00;0.62;0.00;0.00;0.62;2.77;2.30;;;23.30;28.90;;;;;;2222349;62;21071;-60
2021/11/14 02:54:02;0.00;0.00;0.62;0.00;0.00;0.62;3.13;2.83;;;23.30;28.90;;;;;;2221616;62;20428;-60
2021/11/14 02:56:47;0.00;0.00;0.62;0.00;0.00;0.62;3.63;2.83;;;23.20;28.80;;;;;;2222598;62;20467;-61
2021/11/14 02:59:33;0.00;0.00;0.62;0.00;0.00;0.62;3.60;3.17;;;23.30;28.80;;;;;;2222392;62;20616;-60
2021/11/14 03:02:18;0.00;0.00;0.62;0.00;0.00;0.62;4.23;3.33;;;23.30;28.80;;;;;;2221386;62;20462;-61
2021/11/14 03:05:07;0.00;0.00;0.62;0.00;0.00;0.62;4.57;3.57;;;23.30;28.80;;;;;;2222646;62;20379;-61
2021/11/14 03:07:52;0.00;0.00;0.62;0.00;0.00;0.62;4.07;3.67;;;23.20;28.70;;;;;;2222449;62;20383;-61
2021/11/14 03:10:40;0.00;0.00;0.62;0.00;0.00;0.62;4.50;3.67;;;23.20;28.60;;;;;;2222053;62;20367;-61
2021/11/14 03:13:25;0.00;0.00;0.62;0.00;0.00;0.62;4.67;4.17;;;23.20;28.60;;;;;;2222179;62;20383;-61
2021/11/14 03:16:14;0.00;0.00;0.62;0.00;0.00;0.62;4.80;3.87;;;23.20;28.60;;;;;;2221612;62;20797;-62
2021/11/14 03:18:58;0.00;0.00;0.62;0.00;0.00;0.62;5.10;3.87;;;23.20;28.60;;;;;;2222575;62;20374;-61
2021/11/14 03:21:44;0.00;0.00;0.62;0.00;0.00;0.62;4.93;4.43;;;23.20;28.60;;;;;;2222409;62;20573;-63
2021/11/14 03:24:29;0.00;0.00;0.62;0.00;0.00;0.62;5.47;4.53;;;23.20;28.60;;;;;;2221354;62;20666;-60
2021/11/14 03:27:16;0.00;0.00;0.62;0.00;0.00;0.62;4.57;4.10;;;23.20;28.60;;;;;;2222492;62;20411;-61
2021/11/14 03:30:00;0.00;0.00;0.62;0.00;0.00;0.62;5.50;5.00;;;23.20;28.60;;;;;;2222325;62;20375;-60
2021/11/14 03:32:45;0.00;0.00;0.62;0.00;0.00;0.62;4.60;4.07;;;23.20;28.60;;;;;;2221903;62;20639;-59
2021/11/14 03:35:39;0.00;0.00;0.62;0.00;0.00;0.62;5.70;5.17;;;23.20;28.70;;;;;;2221693;62;20475;-62
2021/11/14 03:38:28;0.00;0.00;0.62;0.00;0.00;0.62;5.10;4.50;;;23.10;28.60;;;;;;2221411;62;20355;-62
2021/11/14 03:41:16;0.00;0.00;0.62;0.00;0.00;0.62;5.70;5.20;;;23.10;28.60;;;;;;2222530;62;20478;-62
2021/11/14 03:44:03;0.00;0.00;0.62;0.00;0.00;0.62;5.03;4.53;;;23.10;28.60;;;;;;2222160;62;20871;-62
2021/11/14 03:46:48;0.00;0.00;0.62;0.00;0.00;0.62;5.57;5.07;;;23.10;29.20;;;;;;2221312;62;20378;-61
2021/11/14 03:49:33;0.00;0.00;0.62;0.00;0.00;0.62;5.70;5.10;;;23.10;28.60;;;;;;2222296;62;20367;-59
2021/11/14 03:52:17;0.00;0.00;0.62;0.00;0.00;0.62;5.93;4.93;;;23.10;28.60;;;;;;2222102;62;20756;-60
2021/11/14 03:55:04;0.00;0.00;0.62;0.00;0.00;0.62;5.10;4.60;;;23.10;28.60;;;;;;2221943;62;20472;-61
2021/11/14 03:57:50;0.00;0.00;0.62;0.00;0.00;0.62;5.73;5.17;;;23.10;28.60;;;;;;2222370;62;20370;-61
2021/11/14 04:00:41;0.00;0.00;0.62;0.00;0.00;0.62;6.37;5.73;;;23.00;28.60;;;;;;2221436;62;20439;-60
2021/11/14 04:03:27;0.00;0.00;0.62;0.00;0.00;0.62;7.57;5.60;;;23.10;28.60;;;;;;2222219;62;20612;-60
2021/11/14 04:06:14;0.00;0.00;0.62;0.00;0.00;0.62;6.43;5.10;;;23.10;28.60;;;;;;2222156;62;20392;-60
2021/11/14 04:08:59;0.00;0.00;0.62;0.00;0.00;0.62;5.70;4.97;;;23.00;28.60;;;;;;2221123;62;20680;-61
2021/11/14 04:11:43;0.00;0.00;0.62;0.00;0.00;0.62;6.30;5.70;;;23.00;28.60;;;;;;2222486;62;20446;-60
2021/11/14 04:14:28;0.00;0.00;0.62;0.00;0.00;0.62;5.97;5.40;;;23.00;28.60;;;;;;2222061;62;20390;-61
2021/11/14 04:17:14;0.00;0.00;0.62;0.00;0.00;0.62;6.80;6.10;;;23.00;28.60;;;;;;2221752;62;20424;-59
2021/11/14 04:19:58;0.00;0.00;0.62;0.00;0.00;0.62;5.60;5.00;;;23.00;28.60;;;;;;2222162;62;20596;-62
2021/11/14 04:22:43;0.00;0.00;0.62;0.00;0.00;0.62;6.10;5.60;;;23.00;28.60;;;;;;2221509;62;20371;-62
2021/11/14 04:25:28;0.00;0.00;0.62;0.00;0.00;0.62;6.60;5.43;;;23.00;28.60;;;;;;2222371;62;20631;-60
2021/11/14 04:28:13;0.00;0.00;0.62;0.00;0.00;0.62;6.40;5.30;;;23.00;28.60;;;;;;2221959;62;20408;-60
2021/11/14 04:30:58;0.00;0.00;0.62;0.00;0.00;0.62;5.67;5.07;;;23.00;28.60;;;;;;2221195;62;20473;-60
2021/11/14 04:33:43;0.00;0.00;0.62;0.00;0.00;0.62;5.60;5.10;;;23.00;28.60;;;;;;2222265;62;20401;-60
2021/11/14 04:36:28;0.00;0.00;0.62;0.00;0.00;0.62;5.37;4.87;;;23.00;28.60;;;;;;2222050;62;20614;-61
2021/11/14 04:39:13;0.00;0.00;0.62;0.00;0.00;0.62;6.40;5.43;;;22.90;28.60;;;;;;2221405;62;20373;-61
2021/11/14 04:41:59;0.00;0.00;0.62;0.00;0.00;0.62;5.77;5.20;;;22.90;28.50;;;;;;2222046;62;20359;-60
2021/11/14 04:44:43;0.00;0.00;0.62;0.00;0.00;0.62;5.63;5.13;;;22.90;28.60;;;;;;2221617;62;20422;-59
2021/11/14 04:47:28;0.00;0.00;0.62;0.00;0.00;0.62;6.87;5.67;;;22.90;28.60;;;;;;2222299;62;20429;-61
2021/11/14 04:50:19;0.00;0.00;0.62;0.00;0.00;0.62;5.07;4.57;;;22.90;28.60;;;;;;2221893;62;20367;-59
2021/11/14 04:53:05;0.00;0.00;0.62;0.00;0.00;0.62;5.83;5.07;;;22.90;28.60;;;;;;2220989;62;20362;-60
2021/11/14 04:55:49;0.00;0.00;0.62;0.00;0.00;0.62;6.37;5.63;;;22.90;28.60;;;;;;2222448;62;20363;-61
2021/11/14 04:58:34;0.00;0.00;0.62;0.00;0.00;0.62;5.60;5.00;;;22.90;28.60;;;;;;2221877;62;20370;-61
2021/11/14 05:01:19;0.00;0.00;0.62;0.00;0.00;0.62;6.60;5.83;;;22.90;28.60;;;;;;2221108;62;20630;-62
2021/11/14 05:04:04;0.00;0.00;0.62;0.00;0.00;0.62;6.93;4.93;;;22.90;28.60;;;;;;2221789;62;20402;-61
2021/11/14 05:06:50;0.00;0.00;0.62;0.00;0.00;0.62;7.00;6.27;;;22.80;28.50;;;;;;2221523;62;20609;-62
2021/11/14 05:09:35;0.00;0.00;0.62;0.00;0.00;0.62;6.50;5.90;;;22.80;28.60;;;;;;2222307;62;20477;-61
2021/11/14 05:12:19;0.00;0.00;0.62;0.00;0.00;0.62;5.80;5.20;;;22.80;28.50;;;;;;2221787;62;20414;-62
2021/11/14 05:15:07;0.00;0.00;0.62;0.00;0.00;0.62;6.37;5.00;;;22.80;28.50;;;;;;2221039;62;20391;-61
2021/11/14 05:17:52;0.00;0.00;0.62;0.00;0.00;0.62;5.73;5.07;;;22.80;28.50;;;;;;2221926;62;20371;-60
2021/11/14 05:20:37;0.00;0.00;0.62;0.00;0.00;0.62;5.30;4.83;;;22.80;28.50;;;;;;2221850;62;20370;-61
2021/11/14 05:23:23;0.00;0.00;0.62;0.00;0.00;0.62;5.70;5.10;;;22.80;28.50;;;;;;2221013;62;20398;-61
2021/11/14 05:26:07;0.00;0.00;0.62;0.00;0.00;0.62;6.23;5.60;;;22.80;28.50;;;;;;2222259;62;20368;-60
2021/11/14 05:28:52;0.00;0.00;0.62;0.00;0.00;0.62;6.50;5.90;;;22.80;28.50;;;;;;2221471;62;20367;-59
2021/11/14 05:31:36;0.00;0.00;0.62;0.00;0.00;0.62;7.20;5.40;;;22.70;28.50;;;;;;2221876;62;20727;-59
2021/11/14 05:34:21;0.00;0.00;0.62;0.00;0.00;0.62;6.30;5.43;;;22.80;28.60;;;;;;2221594;62;20390;-60
2021/11/14 05:37:07;0.00;0.00;0.62;0.00;0.00;0.62;6.87;5.87;;;22.70;28.50;;;;;;2221167;62;20383;-58
2021/11/14 05:39:52;0.00;0.00;0.62;0.00;0.00;0.62;6.97;6.27;;;22.70;28.50;;;;;;2222160;62;20382;-59
2021/11/14 05:42:37;0.00;0.00;0.62;0.00;0.00;0.62;8.40;6.23;;;22.70;28.50;;;;;;2221769;62;20588;-63
2021/11/14 05:45:22;0.00;0.00;0.62;0.00;0.00;0.62;6.30;5.70;;;22.70;28.50;;;;;;2221112;62;20367;-60
2021/11/14 05:48:07;0.00;0.00;0.62;0.00;0.00;0.62;6.40;5.80;;;22.70;28.50;;;;;;2221973;62;20416;-59
2021/11/14 05:50:52;0.00;0.00;0.62;0.00;0.00;0.62;6.30;5.53;;;22.70;28.50;;;;;;2221608;62;20413;-62
2021/11/14 05:53:36;0.00;0.00;0.62;0.00;0.00;0.62;6.23;5.53;;;22.70;28.50;;;;;;2221634;62;20387;-62
2021/11/14 05:56:22;0.00;0.00;0.62;0.00;0.00;0.62;6.10;5.57;;;22.70;28.50;;;;;;2221835;62;20367;-62
2021/11/14 05:59:23;0.00;0.00;0.62;0.00;0.00;0.62;6.10;5.50;;;22.70;28.50;;;;;;2221154;62;20370;-60
2021/11/14 06:02:13;0.00;0.00;0.62;0.00;0.00;0.62;6.73;5.40;;;22.60;28.40;;;;;;2222068;62;20371;-61
2021/11/14 06:08:01;0.00;0.00;0.62;0.00;0.00;0.62;8.53;6.73;;;22.60;28.40;;;;;;2220704;62;20394;-60
2021/11/14 06:10:47;0.00;0.00;0.62;0.00;0.00;0.62;7.80;6.57;;;22.60;28.40;;;;;;2221738;62;20431;-62
2021/11/14 06:13:33;0.00;0.00;0.62;0.00;0.00;0.62;6.57;5.80;;;22.60;28.40;;;;;;2221724;62;20440;-61
2021/11/14 06:16:17;0.00;0.00;0.62;0.00;0.00;0.62;6.13;5.13;;;22.60;28.40;;;;;;2222729;62;20383;-62
2021/11/14 06:19:02;0.00;0.00;0.62;0.00;0.00;0.62;7.03;5.87;;;22.60;28.40;;;;;;2222459;62;20403;-60
2021/11/14 06:21:47;0.00;0.00;0.62;0.00;0.00;0.62;5.57;5.07;;;22.60;28.40;;;;;;2221622;62;20375;-60
2021/11/14 06:24:31;0.00;0.00;0.62;0.00;0.00;0.62;6.47;5.60;;;22.60;28.40;;;;;;2222579;62;20394;-62
2021/11/14 06:27:16;0.00;0.00;0.62;0.00;0.00;0.62;7.50;6.27;;;22.60;28.40;;;;;;2222435;62;20636;-60
2021/11/14 06:30:05;0.00;0.00;0.62;0.00;0.00;0.62;6.23;5.63;;;22.60;28.40;;;;;;2221597;62;20402;-60
2021/11/14 06:32:50;0.00;0.00;0.62;0.00;0.00;0.62;6.50;5.77;;;22.60;28.40;;;;;;2222356;62;20409;-59
2021/11/14 06:35:35;0.00;0.00;0.62;0.00;0.00;0.62;5.90;5.20;;;22.60;28.40;;;;;;2222030;62;20782;-61
2021/11/14 06:38:20;0.00;0.00;0.62;0.00;0.00;0.62;8.17;6.70;;;22.60;28.40;;;;;;2221997;62;20379;-62
2021/11/14 06:41:04;0.00;0.00;0.62;0.00;0.00;0.62;7.10;5.87;;;22.50;28.30;;;;;;2222443;62;20367;-60
2021/11/14 06:43:49;0.00;0.00;0.62;0.00;0.00;0.62;8.90;6.10;;;22.50;28.30;;;;;;2221454;62;20480;-60
2021/11/14 06:46:34;0.00;0.00;0.62;0.00;0.00;0.62;6.57;5.83;;;22.50;28.30;;;;;;2222694;62;20630;-60
2021/11/14 06:49:19;0.00;0.00;0.62;0.00;0.00;0.62;6.70;5.90;;;22.50;28.30;;;;;;2222287;62;20370;-61
2021/11/14 06:52:05;0.00;0.00;0.62;0.00;0.00;0.62;5.90;5.30;;;22.50;28.30;;;;;;2221561;62;20760;-61
2021/11/14 06:54:51;0.00;0.00;0.62;0.00;0.00;0.62;6.10;5.50;;;22.50;28.30;;;;;;2222734;62;20391;-61
2021/11/14 06:57:36;0.00;0.00;0.62;0.00;0.00;0.62;7.00;6.30;;;22.50;28.30;;;;;;2222101;62;20780;-59
2021/11/14 07:00:23;0.00;0.00;0.62;0.00;0.00;0.62;6.27;5.63;;;22.50;28.30;;;;;;2222294;62;20690;-62
2021/11/14 07:03:10;0.00;0.00;0.62;0.00;0.00;0.62;6.97;6.27;;;22.50;28.30;;;;;;2222236;62;20390;-61
2021/11/14 07:05:54;0.00;0.00;0.62;0.00;0.00;0.62;6.40;5.40;;;22.50;28.30;;;;;;2221404;62;20370;-60
2021/11/14 07:08:39;0.00;0.00;0.62;0.00;0.00;0.62;7.43;6.07;;;22.50;28.30;;;;;;2222586;62;20367;-61
2021/11/14 07:11:23;0.00;0.00;0.62;0.00;0.00;0.62;9.27;6.63;;;22.50;28.30;;;;;;2222238;62;20366;-60
2021/11/14 07:14:07;0.00;0.00;0.62;0.00;0.00;0.62;6.60;5.90;;;22.40;28.30;;;;;;2221272;62;20407;-63
2021/11/14 07:16:53;0.00;0.00;0.62;0.00;0.00;0.62;6.97;6.27;;;22.40;28.30;;;;;;2222747;62;20367;-60
2021/11/14 07:19:39;0.00;0.00;0.62;0.00;0.00;0.62;5.80;5.20;;;22.40;28.30;;;;;;2222276;62;20693;-60
2021/11/14 07:22:24;0.00;0.00;0.62;0.00;0.00;0.62;6.67;5.67;;;22.40;28.30;;;;;;2222138;62;20616;-62
2021/11/14 07:25:14;0.00;0.00;0.62;0.00;0.00;0.62;9.40;5.63;;;22.40;28.30;;;;;;2222137;62;20395;-62
2021/11/14 07:27:59;0.00;0.00;0.62;0.00;0.00;0.62;8.00;7.10;;;22.40;28.30;;;;;;2221249;62;20441;-62
2021/11/14 07:30:44;0.00;0.00;0.62;0.00;0.00;0.62;9.50;7.17;;;22.40;28.30;;;;;;2222687;62;20351;-60
2021/11/14 07:33:29;0.00;0.00;0.62;0.00;0.00;0.62;8.17;6.70;;;22.40;28.30;;;;;;2221987;62;20386;-60
2021/11/14 07:36:15;0.00;0.00;0.62;0.00;0.00;0.62;8.13;6.43;;;22.40;28.30;;;;;;2221430;62;20367;-62
2021/11/14 07:39:00;0.00;0.00;0.62;0.00;0.00;0.62;7.60;6.23;;;22.40;28.30;;;;;;2222768;62;20584;-60
2021/11/14 07:41:45;0.00;0.00;0.62;0.00;0.00;0.62;6.97;6.27;;;22.40;28.30;;;;;;2222066;62;20412;-61
2021/11/14 07:44:31;0.00;0.00;0.62;0.00;0.00;0.62;8.10;7.10;;;22.40;28.30;;;;;;2221720;62;20418;-59
2021/11/14 07:47:15;0.00;0.00;0.62;0.00;0.00;0.62;7.07;6.00;;;22.40;28.30;;;;;;2222168;62;20367;-61
2021/11/14 07:50:00;0.00;0.00;0.62;0.00;0.00;0.62;7.60;5.83;;;22.40;28.30;;;;;;2220656;62;20497;-59
2021/11/14 07:52:47;0.00;0.00;0.62;0.00;0.00;0.62;6.23;5.03;;;22.40;28.30;;;;;;2222186;62;20367;-62
2021/11/14 07:55:32;0.00;0.00;0.62;0.00;0.00;0.62;6.17;5.57;;;22.40;28.30;;;;;;2222299;62;20452;-61
2021/11/14 07:58:17;0.00;0.00;0.62;0.00;0.00;0.62;6.30;5.70;;;22.30;28.20;;;;;;2221417;62;20363;-62
2021/11/14 08:01:01;0.00;0.00;0.62;0.00;0.00;0.62;6.70;5.90;;;22.30;28.20;;;;;;2222681;62;20375;-62
2021/11/14 08:03:46;0.00;0.00;0.62;0.00;0.00;0.62;6.37;5.67;;;22.30;28.20;;;;;;2222462;62;20746;-59
2021/11/14 08:06:30;0.00;0.00;0.62;0.00;0.00;0.62;7.27;6.17;;;22.30;28.20;;;;;;2221601;62;20375;-61
2021/11/14 08:09:16;0.00;0.00;0.62;0.00;0.00;0.62;7.70;6.85;;;22.30;28.20;;;;;;2222280;62;20406;-60
2021/11/14 08:12:01;0.00;0.00;0.62;0.00;0.00;0.62;8.20;7.10;;;22.30;28.50;;;;;;2221408;62;20249;-62
2021/11/14 08:14:45;0.00;0.00;0.62;0.00;0.00;0.62;7.50;6.80;;;22.40;28.50;;;;;;2222195;62;20383;-60
2021/11/14 08:17:30;0.00;0.00;0.62;0.00;0.00;0.62;7.80;7.00;;;22.30;28.40;;;;;;2222314;62;20420;-61
2021/11/14 08:20:15;0.00;0.00;0.62;0.00;0.00;0.62;7.40;6.23;;;22.30;28.30;;;;;;2221072;62;20746;-61
2021/11/14 08:23:00;0.00;0.00;0.62;0.00;0.00;0.62;8.50;7.60;;;22.30;28.20;;;;;;2221987;62;20596;-59
2021/11/14 08:25:46;0.00;0.00;0.62;0.00;0.00;0.62;8.10;6.70;;;22.30;28.20;;;;;;2222407;62;20363;-61
2021/11/14 08:28:31;0.00;0.00;0.62;0.00;0.00;0.62;8.43;6.70;;;22.30;28.30;;;;;;2221477;62;20440;-63
2021/11/14 08:31:20;0.00;0.00;0.62;0.00;0.00;0.62;10.23;7.13;;;22.30;28.40;;;;;;2221883;62;20730;-60
2021/11/14 08:34:06;0.00;0.00;0.62;0.00;0.00;0.62;7.43;6.63;;;22.30;28.50;;;;;;2219750;62;20761;-60
2021/11/14 08:36:51;0.00;0.00;0.62;0.00;0.00;0.62;7.40;5.80;;;22.30;28.50;;;;;;2221806;62;20408;-62
2021/11/14 08:39:35;0.00;0.00;0.62;0.00;0.00;0.62;9.37;7.60;;;22.30;28.50;;;;;;2222336;62;20365;-60
2021/11/14 08:42:21;0.00;0.00;0.62;0.00;0.00;0.62;7.60;6.37;;;22.30;28.50;;;;;;2221430;62;20367;-60
2021/11/14 08:45:09;0.00;0.00;0.62;0.00;0.00;0.62;8.03;7.23;;;22.30;28.60;;;;;;2222053;62;20488;-62
2021/11/14 08:47:54;0.00;0.00;0.62;0.00;0.00;0.62;8.50;6.27;;;22.30;28.50;;;;;;2221649;62;20594;-60
2021/11/14 08:50:39;0.00;0.00;0.62;0.00;0.00;0.62;7.40;6.60;;;22.30;29.00;;;;;;2221487;62;20374;-61
2021/11/14 08:53:24;0.00;0.00;0.62;0.00;0.00;0.62;7.57;6.77;;;22.30;28.50;;;;;;2222062;62;20383;-60
2021/11/14 08:56:09;0.00;0.00;0.62;0.00;0.00;0.62;7.47;6.70;;;22.30;28.60;;;;;;2221647;62;20567;-60
2021/11/14 08:58:54;0.00;0.00;0.62;0.00;0.00;0.62;9.00;7.43;;;22.30;28.60;;;;;;2221254;62;20442;-60
2021/11/14 09:01:40;0.00;0.00;0.62;0.00;0.00;0.62;7.60;6.13;;;22.30;28.70;;;;;;2222364;62;20375;-62
2021/11/14 09:04:25;0.00;0.00;0.62;0.00;0.00;0.62;7.77;6.90;;;22.30;28.70;;;;;;2221052;62;20657;-58
2021/11/14 09:07:11;0.00;0.00;0.62;0.00;0.00;0.62;9.63;7.53;;;22.30;28.70;;;;;;2221906;62;20427;-59
2021/11/14 09:09:55;0.00;0.00;0.62;0.00;0.00;0.62;8.27;7.27;;;22.30;28.70;;;;;;2221899;62;20712;-62
2021/11/14 09:12:40;0.00;0.00;0.62;0.00;0.00;0.62;8.77;7.70;;;22.30;28.70;;;;;;2220715;62;20447;-61
2021/11/14 09:15:29;0.00;0.00;0.62;0.00;0.00;0.62;8.53;6.97;;;22.30;28.80;;;;;;2222268;62;20439;-60
2021/11/14 09:18:15;0.00;0.00;0.62;0.00;0.00;0.62;8.07;6.80;;;22.30;28.80;;;;;;2220739;62;20608;-60
2021/11/14 09:21:01;0.00;0.00;0.62;0.00;0.00;0.62;8.50;7.60;;;22.40;28.80;;;;;;2220754;62;20366;-64
2021/11/14 09:23:45;0.00;0.00;0.62;0.00;0.00;0.62;10.20;7.37;;;22.40;28.80;;;;;;2222112;62;20432;-62
2021/11/14 09:26:30;0.00;0.00;0.62;0.00;0.00;0.62;8.07;7.27;;;22.40;28.80;;;;;;2221322;62;20398;-62
2021/11/14 09:29:14;0.00;0.00;0.62;0.00;0.00;0.62;8.10;7.30;;;22.40;28.80;;;;;;2222010;62;20416;-61
2021/11/14 09:32:01;0.00;0.00;0.62;0.00;0.00;0.62;10.23;8.57;;;22.40;28.80;;;;;;2221948;62;20517;-62
2021/11/14 09:34:46;0.00;0.00;0.62;0.00;0.00;0.62;9.20;7.13;;;22.40;28.80;;;;;;2221258;62;20868;-63
2021/11/14 09:37:31;0.00;0.00;0.62;0.00;0.00;0.62;8.20;7.40;;;22.40;28.80;;;;;;2222226;62;20404;-59
2021/11/14 09:40:16;0.00;0.00;0.62;0.00;0.00;0.62;8.13;7.17;;;22.40;28.80;;;;;;2221837;62;20370;-62
2021/11/14 09:43:02;0.00;0.00;0.62;0.00;0.00;0.62;7.90;7.10;;;22.40;28.80;;;;;;2221187;62;20438;-63
2021/11/14 09:45:48;0.00;0.00;0.62;0.00;0.00;0.62;7.10;6.40;;;22.40;28.80;;;;;;2222083;62;20452;-63
2021/11/14 09:48:34;0.00;0.00;0.62;0.00;0.00;0.62;8.67;7.77;;;22.40;28.80;;;;;;2220873;62;20370;-62
2021/11/14 09:51:19;0.00;0.00;0.62;0.00;0.00;0.62;8.70;7.70;;;22.40;28.80;;;;;;2222394;62;20795;-60
2021/11/14 09:54:06;0.00;0.00;0.62;0.00;0.00;0.62;8.13;7.33;;;22.40;28.80;;;;;;2222450;62;20457;-62
2021/11/14 09:56:52;0.00;0.00;0.62;0.00;0.00;0.62;8.23;6.83;;;22.40;28.80;;;;;;2222235;62;20370;-60
2021/11/14 09:59:37;0.00;0.00;0.62;0.00;0.00;0.62;9.80;7.70;;;22.40;28.80;;;;;;2222964;62;20402;-60
2021/11/14 10:02:22;0.00;0.00;0.62;0.00;0.00;0.62;8.17;7.10;;;22.40;28.80;;;;;;2222491;62;20678;-62
2021/11/14 10:05:11;0.00;0.00;0.62;0.00;0.00;0.62;7.57;6.50;;;22.40;28.70;;;;;;2222275;62;20443;-60
2021/11/14 10:07:57;0.00;0.00;0.62;0.00;0.00;0.62;6.57;5.50;;;22.50;28.80;;;;;;2222965;62;20738;-61
2021/11/14 10:10:48;0.00;0.00;0.62;0.00;0.00;0.62;8.40;6.47;;;22.50;28.70;;;;;;2222297;62;20388;-58
2021/11/14 10:13:35;0.00;0.00;0.62;0.00;0.00;0.62;6.43;5.80;;;22.50;28.80;;;;;;2222666;62;20421;-63
2021/11/14 10:16:21;0.00;0.00;0.62;0.00;0.00;0.62;5.77;5.27;;;22.50;28.70;;;;;;2222519;62;20393;-61
2021/11/14 10:19:12;0.00;0.00;0.62;0.00;0.00;0.62;5.77;5.03;;;22.50;28.70;;;;;;2222309;62;20370;-59
2021/11/14 10:21:59;0.00;0.00;0.62;0.00;0.00;0.62;5.80;5.20;;;22.50;28.70;;;;;;2222900;62;20485;-60
2021/11/14 10:24:44;0.00;0.00;0.62;0.00;0.00;0.62;5.73;5.13;;;22.50;28.70;;;;;;2222535;62;20394;-61
2021/11/14 10:27:29;0.00;0.00;0.62;0.00;0.00;0.62;5.13;4.27;;;22.50;28.70;;;;;;2222122;62;20366;-63
2021/11/14 10:30:14;0.00;0.00;0.62;0.00;0.00;0.62;4.97;4.30;;;22.50;28.70;;;;;;2221768;62;20488;-61
2021/11/14 10:33:03;0.00;0.00;0.62;0.00;0.00;0.62;4.83;4.30;;;22.50;28.80;;;;;;2222010;62;20370;-61
2021/11/14 10:35:51;0.00;0.00;0.62;0.00;0.00;0.62;5.23;4.73;;;22.50;28.80;;;;;;2222556;62;20387;-61
2021/11/14 10:38:40;0.00;0.00;0.62;0.00;0.00;0.62;5.00;4.60;;;22.50;28.80;;;;;;2222504;62;20370;-60
2021/11/14 10:41:25;0.00;0.00;0.62;0.00;0.00;0.62;4.63;4.13;;;22.60;28.90;;;;;;2222588;62;20394;-61
2021/11/14 10:44:12;0.00;0.00;0.62;0.00;0.00;0.62;4.80;4.00;;;22.60;29.00;;;;;;2222661;62;20394;-59
2021/11/14 10:47:06;0.00;0.00;0.62;0.00;0.00;0.62;4.57;4.17;;;22.60;29.00;;;;;;2221597;62;20400;-60
2021/11/14 10:49:55;0.00;0.00;0.62;0.00;0.00;0.62;4.80;4.20;;;22.60;29.00;;;;;;2222444;62;20650;-58
2021/11/14 10:52:51;0.00;0.00;0.62;0.00;0.00;0.62;4.63;3.73;;;22.60;29.00;;;;;;2222477;62;20371;-65
2021/11/14 10:55:42;0.00;0.00;0.62;0.00;0.00;0.62;4.33;3.93;;;22.60;29.00;;;;;;2222252;62;20403;-62
2021/11/14 10:58:29;0.00;0.00;0.62;0.00;0.00;0.62;5.00;4.33;;;22.60;29.00;;;;;;2221750;62;20440;-60